Silver Bay, MN

5:56 PM CDT on October 16, 2017 (GMT -0500)
Silver Bay Municipal

Weather History for KBFW - November, 2011

Change the Weather History Date:

Friday, November 4, 2011

  Actual Average Record
Temperature  
Mean Temperature 32 °F -  
Max Temperature 50 °F 39 °F 71 °F (2008)
Min Temperature 15 °F 25 °F 15 °F (2011)
Degree Days  
Heating Degree Days 32    
Moisture  
Dew Point 23 °F    
Average Humidity 76    
Maximum Humidity 100    
Minimum Humidity 32    
Precipitation  
Precipitation 0.00 in - - ()
Sea Level Pressure  
Sea Level Pressure 30.16 in    
Wind  
Wind Speed 1 mph (SE)    
Max Wind Speed 8 mph    
Max Gust Speed -    
Visibility 10 miles    
Events      
Averages and records for this station are not official NWS values.
T = Trace of Precipitation, MM = Missing Value Source: NWS Daily Summary

Daily Weather History Graph

Daily Weather History Graph

Search for Another Location

Airport or City:

Trip Planner

Search our weather history database for the weather conditions in past years. The results will help you decide how hot, cold, wet, or windy it might be!

Date:

Astronomy

Nov. 04, 2011 Rise Set
Actual Time 7:53 AM CDT 5:44 PM CDT
Civil Twilight 7:20 AM CDT 6:17 PM CDT
Nautical Twilight 6:44 AM CDT 6:53 PM CDT
Astronomical Twilight 6:08 AM CDT 7:28 PM CDT
Moon 2:56 PM CDT (11/4) 1:43 AM CDT (11/4)
Length of Visible Light 10h 56m
Length of Day
9h 51m
Waxing Gibbous, 69% of the Moon is Illuminated
Nov 4
Waxing Gibbous
Nov 10
Full
Nov 18
Last Quarter
Nov 25
New
Dec 2
First Quarter

Hourly Weather History & Observations

Time (CDT) Temp. Windchill Dew Point Humidity Pressure Visibility Wind Dir Wind Speed Gust Speed Precip Events Conditions
12:14 AM 21.2 °F - 19.4 °F 93% 30.19 in 10.0 mi Calm Calm - N/A   Clear
12:34 AM 21.2 °F - 17.6 °F 86% 30.19 in 10.0 mi Calm Calm - N/A   Unknown
12:54 AM 19.4 °F - 17.6 °F 93% 30.19 in 10.0 mi Calm Calm - N/A   Clear
1:14 AM 21.2 °F - 17.6 °F 86% 30.19 in 10.0 mi Calm Calm - N/A   Clear
1:34 AM 21.2 °F - 17.6 °F 86% 30.18 in 10.0 mi Calm Calm - N/A   Clear
1:54 AM 19.4 °F - 17.6 °F 93% 30.18 in 10.0 mi Calm Calm - N/A   Clear
2:14 AM 19.4 °F - 17.6 °F 93% 30.19 in 10.0 mi Calm Calm - N/A   Clear
2:34 AM 19.4 °F - 15.8 °F 86% 30.19 in 10.0 mi Calm Calm - N/A   Unknown
3:14 AM 19.4 °F - 15.8 °F 86% 30.20 in 10.0 mi Calm Calm - N/A   Unknown
3:34 AM 17.6 °F - 15.8 °F 93% 30.19 in 10.0 mi Calm Calm - N/A   Unknown
3:54 AM 17.6 °F - 15.8 °F 93% 30.20 in 10.0 mi Calm Calm - N/A   Unknown
4:14 AM 17.6 °F - 15.8 °F 93% 30.19 in 10.0 mi Calm Calm - N/A   Unknown
4:34 AM 17.6 °F - 15.8 °F 93% 30.19 in 10.0 mi Calm Calm - N/A   Unknown
4:54 AM 17.6 °F - 15.8 °F 93% 30.19 in 10.0 mi Calm Calm - N/A   Unknown
5:14 AM 17.6 °F - 15.8 °F 93% 30.20 in 10.0 mi Calm Calm - N/A   Unknown
5:34 AM 17.6 °F - 15.8 °F 93% 30.19 in 10.0 mi Calm Calm - N/A   Unknown
5:54 AM 17.6 °F - 15.8 °F 93% 30.20 in 10.0 mi Calm Calm - N/A   Unknown
6:14 AM 17.6 °F - 15.8 °F 93% 30.20 in 10.0 mi Calm Calm - N/A   Unknown
6:54 AM 15.8 °F - 15.8 °F 100% 30.21 in 10.0 mi Calm Calm - N/A   Unknown
7:14 AM 15.8 °F - 14.0 °F 93% 30.21 in 10.0 mi Calm Calm - N/A   Unknown
7:34 AM 17.6 °F - 15.8 °F 93% 30.21 in 10.0 mi Calm Calm - N/A   Clear
7:54 AM 15.8 °F - 12.2 °F 86% 30.21 in 10.0 mi Calm Calm - N/A   Clear
8:14 AM 15.8 °F - 15.8 °F 100% 30.22 in 10.0 mi Calm Calm - N/A   Clear
8:34 AM 19.4 °F - 17.6 °F 93% 30.22 in 10.0 mi Calm Calm - N/A   Clear
8:54 AM 23.0 °F - 21.2 °F 93% 30.22 in 10.0 mi Calm Calm - N/A   Clear
9:14 AM 24.8 °F - 23.0 °F 93% 30.22 in 10.0 mi Calm Calm - N/A   Clear
9:34 AM 28.4 °F - 26.6 °F 93% 30.22 in 10.0 mi Calm Calm - N/A   Clear
9:54 AM 30.2 °F - 28.4 °F 93% 30.23 in 10.0 mi Calm Calm - N/A   Unknown
10:34 AM 35.6 °F - 30.2 °F 81% 30.23 in 10.0 mi Calm Calm - N/A   Clear
10:54 AM 37.4 °F - 32.0 °F 81% 30.22 in 10.0 mi Calm Calm - N/A   Clear
11:14 AM 41.0 °F - 30.2 °F 65% 30.22 in 10.0 mi Calm Calm - N/A   Clear
11:34 AM 42.8 °F 41.1 °F 30.2 °F 61% 30.22 in 10.0 mi South 3.5 mph - N/A   Clear
11:54 AM 44.6 °F 42.2 °F 30.2 °F 57% 30.21 in 10.0 mi SSE 4.6 mph - N/A   Clear
12:14 PM 46.4 °F 42.9 °F 28.4 °F 50% 30.21 in 10.0 mi South 6.9 mph - N/A   Clear
12:34 PM 46.4 °F 42.4 °F 26.6 °F 46% 30.19 in 10.0 mi SSW 8.1 mph - N/A   Clear
1:15 PM 46.4 °F 42.9 °F 28.4 °F 50% 30.18 in 10.0 mi South 6.9 mph - N/A   Clear
1:34 PM 46.4 °F 42.9 °F 26.6 °F 46% 30.17 in 10.0 mi South 6.9 mph - N/A   Clear
1:54 PM 48.2 °F - 26.6 °F 43% 30.16 in 10.0 mi South 5.8 mph - N/A   Clear
2:34 PM 48.2 °F - 23.0 °F 37% 30.16 in 10.0 mi SSW 6.9 mph - N/A   Clear
3:14 PM 50.0 °F - 21.2 °F 32% 30.14 in 10.0 mi SSE 5.8 mph - N/A   Clear
3:34 PM 48.2 °F - 23.0 °F 37% 30.13 in 10.0 mi SSE 5.8 mph - N/A   Clear
3:54 PM 48.2 °F - 24.8 °F 40% 30.13 in 10.0 mi SE 4.6 mph - N/A   Clear
4:34 PM 46.4 °F 45.2 °F 24.8 °F 43% 30.11 in 10.0 mi East 3.5 mph - N/A   Clear
4:54 PM 46.4 °F 45.2 °F 24.8 °F 43% 30.11 in 10.0 mi East 3.5 mph - N/A   Clear
5:14 PM 42.8 °F 40.1 °F 26.6 °F 53% 30.10 in 10.0 mi East 4.6 mph - N/A   Clear
5:54 PM 39.2 °F 37.0 °F 26.6 °F 61% 30.10 in 10.0 mi ENE 3.5 mph - N/A   Clear
6:14 PM 37.4 °F 33.8 °F 28.4 °F 70% 30.09 in 10.0 mi ENE 4.6 mph - N/A   Clear
6:34 PM 37.4 °F 34.9 °F 28.4 °F 70% 30.09 in 10.0 mi NE 3.5 mph - N/A   Clear
6:54 PM 35.6 °F 31.7 °F 28.4 °F 75% 30.09 in 10.0 mi NE 4.6 mph - N/A   Clear
7:14 PM 35.6 °F 31.7 °F 28.4 °F 75% 30.09 in 10.0 mi NE 4.6 mph - N/A   Clear
7:34 PM 35.6 °F 32.8 °F 30.2 °F 81% 30.08 in 10.0 mi NE 3.5 mph - N/A   Clear
7:54 PM 35.6 °F - 28.4 °F 75% 30.08 in 10.0 mi Calm Calm - N/A   Clear
8:14 PM 35.6 °F - 28.4 °F 75% 30.07 in 10.0 mi Calm Calm - N/A   Clear
8:35 PM 33.8 °F - 26.6 °F 75% 30.07 in 10.0 mi Calm Calm - N/A   Clear
8:54 PM 33.8 °F - 26.6 °F 75% 30.07 in 10.0 mi Calm Calm - N/A   Clear
9:14 PM 30.2 °F - 26.6 °F 86% 30.07 in 10.0 mi Calm Calm - N/A   Clear
9:34 PM 32.0 °F 28.7 °F 26.6 °F 80% 30.06 in 10.0 mi South 3.5 mph - N/A   Clear
10:14 PM 35.6 °F 31.7 °F 26.6 °F 70% 30.05 in 10.0 mi South 4.6 mph - N/A   Clear
10:34 PM 35.6 °F 32.8 °F 26.6 °F 70% 30.04 in 10.0 mi South 3.5 mph - N/A   Clear
10:54 PM 35.6 °F 32.8 °F 26.6 °F 70% 30.04 in 10.0 mi SSW 3.5 mph - N/A   Clear
11:14 PM 33.8 °F 29.6 °F 24.8 °F 70% 30.04 in 10.0 mi SSW 4.6 mph - N/A   Clear